Historyczne dane pomiarowe

Dodano dane terminowe – wersja testowa.

Dane z okresu 1951-2019

Wersja bazy: 1.34 [2019-03-16, lista zmian], aktualizacja planowana na 2019-04-15

Dane meteo z obszaru Polski uzyskane na podstawie danych udostępnionych przez Instytut Meteorologii i Gospodarki Wodnej – Państwowy Instytut Badawczy.

 

Wybierz Datę:    

       

TemperaturaWilgotnośćWiatrCiśnienieOpadyŚniegCzas trwania zjawisk
 Stacja t tx tn tng RH VA  wxwx mslp ppp RRR   cm mm wxwxwxwxwxwxwx
1999-08-14 15.3 22.3 9.3 6.1-- 2.0 3.0---- 0.0------------
1999-08-13 14.5 20.0 10.3 6.6-- 5.7 3.0---- 0.0------------
1999-08-12 15.5 20.3 11.3 8.5-- 5.3 3.3---- 0.0------------
1999-08-11 18.5 23.8 14.8 12.4-- 4.7 5.0---- 0.1------------
1999-08-10 18.9 24.3 14.3 11.9-- 5.7 2.0---- 1.3------------
1999-08-09 21.5 28.3 17.4 13.8-- 4.3 3.3---- 0.8------------
1999-08-08 22.6 29.3 17.9 10.9-- 5.7 2.0---- 0.0------------
1999-08-07 20.9 30.3 12.3 9.0-- 4.0 3.3---- 0.7------------
1999-08-06 21.1 25.3 16.9 14.3-- 4.0 1.7---- 0.0------------
1999-08-05 17.7 28.3 8.3 6.1-- 1.7 1.0---- 0.0------------
1999-08-04 17.3 27.3 8.3 5.2-- 0.3 1.3---- 0.0------------
1999-08-03 17.6 27.3 8.3 5.7-- 2.0 1.0---- 0.0------------
1999-08-02 18.8 26.3 10.8 9.5-- 1.7 1.7---- 0.0------------
1999-08-01 19.6 27.0 12.8 9.0-- 2.7 2.0---- 0.0------------
1999-07-31 19.0 26.8 10.8 7.1-- 3.7 1.7---- 0.0------------
1999-07-30 18.5 25.8 10.3 6.1-- 1.3 2.3---- 0.0------------
1999-07-29 17.8 24.8 10.5 7.6-- 3.7 2.7---- 0.0------------
1999-07-28 18.0 25.8 10.3 6.1-- 3.0 3.0---- 0.0------------
1999-07-27 18.2 23.0 14.3 12.9-- 1.3 3.7---- 0.0------------
1999-07-26 20.2 28.3 12.3 11.4-- 3.3 3.3---- 0.1------------
1999-07-25 19.3 26.3 10.8 10.4-- 3.3 1.7---- 0.0------------
1999-07-24 16.9 22.3 12.8 12.4-- 7.3 3.3---- 0.0------------
1999-07-23 17.1 21.8 12.8 9.9-- 7.3 1.7---- 0.0------------
1999-07-22 18.6 23.3 15.3 13.4-- 6.7 1.7---- 0.0------------
1999-07-21 21.8 28.8 16.9 14.3-- 4.7 4.7---- 0.4------------
1999-07-20 22.1 30.8 13.8 10.4-- 1.0 2.3---- 0.0------------
1999-07-19 21.7 29.8 13.8 10.9-- 4.0 1.0---- 0.0------------
1999-07-18 19.6 27.3 11.8 9.0-- 3.3 1.0---- 0.0------------
1999-07-17 18.1 24.8 11.3 9.0-- 2.3 1.0---- 0.2------------
1999-07-16 16.7 22.3 12.3 9.9-- 2.7 2.0---- 4.2------------
1999-07-15 17.2 20.8 14.3 12.9-- 4.3 3.7---- 0.0------------
1999-07-14 20.2 27.8 16.4 13.4-- 7.0 3.7---- 10.4------------
1999-07-13 21.8 27.3 17.9 15.3-- 6.0 2.3---- 0.4------------
1999-07-12 22.3 29.3 15.3 12.9-- 3.7 1.7---- 0.0------------
1999-07-11 21.4 26.8 15.3 11.9-- 4.3 3.7---- 0.0------------
1999-07-10 21.0 25.8 15.3 13.4-- 1.3 3.3---- 0.0------------
1999-07-09 19.6 23.3 15.9 14.8-- 6.7 5.0---- 0.0------------
1999-07-08 17.0 19.0 15.9 14.8-- 8.0 3.7---- 5.3------------
1999-07-07 19.5 23.0 17.4 16.8-- 7.7 2.3---- 2.3------------
1999-07-06 24.0 31.8 18.9 14.3-- 3.0 2.7---- 18.2------------
1999-07-05 24.5 32.8 14.3 13.4-- 0.3 3.0---- 0.0------------
1999-07-04 23.0 31.8 14.3 11.9-- 2.3 4.3---- 0.0------------
1999-07-03 20.6 26.3 14.8 10.9-- 1.3 2.7---- 0.0------------
1999-07-02 19.4 23.8 15.9 12.4-- 6.0 1.3---- 0.0------------
1999-07-01 18.7 25.0 13.3 10.4-- 3.0 2.3---- 2.7------------
1999-06-30 19.3 25.8 11.8 8.0-- 2.0 0.7---- 0.0------------
1999-06-29 18.7 23.8 13.3 10.9-- 1.7 1.0---- 0.0------------
1999-06-28 20.9 30.3 14.3 10.9-- 4.3 3.0---- 18.2------------
1999-06-27 20.0 27.0 12.8 10.4-- 1.7 2.0---- 0.0------------
1999-06-26 15.2 22.0 8.3 4.7-- 3.3 1.0---- 0.0------------
1999-06-25 12.6 18.8 5.3 2.8-- 6.7 1.3---- 0.0------------
1999-06-24 12.1 19.0 4.8 1.4-- 3.3 2.0---- 0.0------------
1999-06-23 11.6 14.8 7.8 7.1-- 6.0 5.0---- 0.3------------
1999-06-22 10.9 14.8 9.2 9.0-- 8.0 7.7---- 39.1------------
1999-06-21 17.3 22.8 14.3 11.9-- 7.0 4.0---- 7.9------------
1999-06-20 17.6 22.3 12.4 9.5-- 6.3 1.0---- 0.0------------
1999-06-19 16.5 18.3 14.8 13.8-- 8.0 2.7---- 0.1------------
1999-06-18 17.5 19.8 15.9 13.8-- 8.0 2.0---- 9.7------------
1999-06-17 18.9 22.3 15.9 13.4-- 7.7 3.0---- 0.9------------
1999-06-16 17.1 19.3 14.8 13.8-- 8.0 1.3---- 0.8------------
360.2 ms

 

Źródłem pochodzenia danych jest Instytut Meteorologii i Gospodarki Wodnej – Państwowy Instytut Badawczy. Dane Instytutu Meteorologii i Gospodarki Wodnej – Państwowego Instytutu Badawczego zostały przetworzone.

Dane źródłowe można odnaleźć na stronie https://dane.imgw.pl